sensor_id;sensor_type;location;lat;lon;timestamp;P1;durP1;ratioP1;P2;durP2;ratioP2
14665;SDS011;7420;53.574;10.040;2023-01-19T00:01:08;15.52;;;11.10;;
14665;SDS011;7420;53.574;10.040;2023-01-19T00:03:33;22.70;;;12.23;;
14665;SDS011;7420;53.574;10.040;2023-01-19T00:06:03;17.95;;;9.93;;
14665;SDS011;7420;53.574;10.040;2023-01-19T00:08:31;28.08;;;11.35;;
14665;SDS011;7420;53.574;10.040;2023-01-19T00:10:57;18.13;;;10.60;;
14665;SDS011;7420;53.574;10.040;2023-01-19T00:13:22;19.95;;;11.77;;
14665;SDS011;7420;53.574;10.040;2023-01-19T00:15:48;15.52;;;10.00;;
14665;SDS011;7420;53.574;10.040;2023-01-19T00:18:13;15.48;;;10.07;;
14665;SDS011;7420;53.574;10.040;2023-01-19T00:20:38;19.13;;;11.10;;
14665;SDS011;7420;53.574;10.040;2023-01-19T00:23:04;15.57;;;10.90;;
14665;SDS011;7420;53.574;10.040;2023-01-19T00:25:31;16.92;;;10.52;;
14665;SDS011;7420;53.574;10.040;2023-01-19T00:27:57;23.00;;;11.65;;
14665;SDS011;7420;53.574;10.040;2023-01-19T00:30:23;20.60;;;10.82;;
14665;SDS011;7420;53.574;10.040;2023-01-19T00:32:48;20.80;;;11.88;;
14665;SDS011;7420;53.574;10.040;2023-01-19T00:35:14;15.43;;;10.23;;
14665;SDS011;7420;53.574;10.040;2023-01-19T00:37:39;19.65;;;12.07;;
14665;SDS011;7420;53.574;10.040;2023-01-19T00:40:05;21.13;;;12.07;;
14665;SDS011;7420;53.574;10.040;2023-01-19T00:42:31;18.23;;;11.27;;
14665;SDS011;7420;53.574;10.040;2023-01-19T00:47:34;18.25;;;10.70;;
14665;SDS011;7420;53.574;10.040;2023-01-19T00:49:59;14.93;;;10.23;;
14665;SDS011;7420;53.574;10.040;2023-01-19T00:52:24;14.07;;;9.27;;
14665;SDS011;7420;53.574;10.040;2023-01-19T00:54:50;17.60;;;11.82;;
14665;SDS011;7420;53.574;10.040;2023-01-19T00:57:15;17.00;;;11.57;;
14665;SDS011;7420;53.574;10.040;2023-01-19T00:59:43;14.23;;;9.57;;
14665;SDS011;7420;53.574;10.040;2023-01-19T01:02:08;14.77;;;10.75;;
14665;SDS011;7420;53.574;10.040;2023-01-19T01:04:35;18.35;;;12.40;;
14665;SDS011;7420;53.574;10.040;2023-01-19T01:07:00;14.38;;;9.43;;
14665;SDS011;7420;53.574;10.040;2023-01-19T01:09:26;18.95;;;11.88;;
14665;SDS011;7420;53.574;10.040;2023-01-19T01:11:51;20.75;;;11.38;;
14665;SDS011;7420;53.574;10.040;2023-01-19T01:14:17;17.30;;;12.05;;
14665;SDS011;7420;53.574;10.040;2023-01-19T01:16:43;16.13;;;10.95;;
14665;SDS011;7420;53.574;10.040;2023-01-19T01:19:08;16.52;;;9.70;;
14665;SDS011;7420;53.574;10.040;2023-01-19T01:21:34;16.65;;;10.32;;
14665;SDS011;7420;53.574;10.040;2023-01-19T01:23:59;20.17;;;13.77;;
14665;SDS011;7420;53.574;10.040;2023-01-19T01:26:25;16.42;;;10.60;;
14665;SDS011;7420;53.574;10.040;2023-01-19T01:28:51;16.90;;;11.40;;
14665;SDS011;7420;53.574;10.040;2023-01-19T01:31:16;17.35;;;11.27;;
14665;SDS011;7420;53.574;10.040;2023-01-19T01:33:41;17.23;;;10.98;;
14665;SDS011;7420;53.574;10.040;2023-01-19T01:36:07;20.80;;;9.77;;
14665;SDS011;7420;53.574;10.040;2023-01-19T01:38:34;14.45;;;12.13;;
14665;SDS011;7420;53.574;10.040;2023-01-19T01:40:59;16.60;;;11.00;;
14665;SDS011;7420;53.574;10.040;2023-01-19T01:43:40;17.85;;;11.25;;
14665;SDS011;7420;53.574;10.040;2023-01-19T01:46:07;16.27;;;12.23;;
14665;SDS011;7420;53.574;10.040;2023-01-19T01:48:33;17.35;;;10.82;;
14665;SDS011;7420;53.574;10.040;2023-01-19T01:50:59;18.38;;;10.75;;
14665;SDS011;7420;53.574;10.040;2023-01-19T01:53:48;18.83;;;11.82;;
14665;SDS011;7420;53.574;10.040;2023-01-19T01:56:37;18.48;;;11.35;;
14665;SDS011;7420;53.574;10.040;2023-01-19T01:59:05;16.90;;;10.57;;
14665;SDS011;7420;53.574;10.040;2023-01-19T02:01:33;18.50;;;11.13;;
14665;SDS011;7420;53.574;10.040;2023-01-19T02:04:17;18.75;;;10.30;;
14665;SDS011;7420;53.574;10.040;2023-01-19T02:06:43;14.18;;;10.02;;
14665;SDS011;7420;53.574;10.040;2023-01-19T02:12:12;18.35;;;10.95;;
14665;SDS011;7420;53.574;10.040;2023-01-19T02:17:21;22.13;;;10.65;;
14665;SDS011;7420;53.574;10.040;2023-01-19T02:19:46;23.40;;;12.05;;
14665;SDS011;7420;53.574;10.040;2023-01-19T02:22:32;17.00;;;10.57;;
14665;SDS011;7420;53.574;10.040;2023-01-19T02:25:03;19.23;;;10.32;;
14665;SDS011;7420;53.574;10.040;2023-01-19T02:27:30;17.40;;;12.25;;
14665;SDS011;7420;53.574;10.040;2023-01-19T02:29:56;19.42;;;11.27;;
14665;SDS011;7420;53.574;10.040;2023-01-19T02:32:23;19.23;;;11.45;;
14665;SDS011;7420;53.574;10.040;2023-01-19T02:34:48;23.30;;;10.07;;
14665;SDS011;7420;53.574;10.040;2023-01-19T02:37:13;20.42;;;10.57;;
14665;SDS011;7420;53.574;10.040;2023-01-19T02:42:12;14.30;;;9.80;;
14665;SDS011;7420;53.574;10.040;2023-01-19T02:44:43;19.58;;;11.25;;
14665;SDS011;7420;53.574;10.040;2023-01-19T02:47:13;14.32;;;8.00;;
14665;SDS011;7420;53.574;10.040;2023-01-19T02:49:38;18.92;;;10.32;;
14665;SDS011;7420;53.574;10.040;2023-01-19T02:52:04;17.10;;;11.00;;
14665;SDS011;7420;53.574;10.040;2023-01-19T02:59:33;20.92;;;11.93;;
14665;SDS011;7420;53.574;10.040;2023-01-19T03:02:17;15.00;;;11.10;;
14665;SDS011;7420;53.574;10.040;2023-01-19T03:12:53;17.42;;;10.98;;
14665;SDS011;7420;53.574;10.040;2023-01-19T03:15:26;16.38;;;11.73;;
14665;SDS011;7420;53.574;10.040;2023-01-19T03:17:56;19.88;;;11.95;;
14665;SDS011;7420;53.574;10.040;2023-01-19T03:20:25;15.50;;;10.80;;
14665;SDS011;7420;53.574;10.040;2023-01-19T03:22:54;20.77;;;13.70;;
14665;SDS011;7420;53.574;10.040;2023-01-19T03:25:24;16.33;;;11.70;;
14665;SDS011;7420;53.574;10.040;2023-01-19T03:27:52;20.08;;;11.65;;
14665;SDS011;7420;53.574;10.040;2023-01-19T03:30:27;19.65;;;12.05;;
14665;SDS011;7420;53.574;10.040;2023-01-19T03:33:01;21.15;;;12.93;;
14665;SDS011;7420;53.574;10.040;2023-01-19T03:35:34;21.33;;;12.07;;
14665;SDS011;7420;53.574;10.040;2023-01-19T03:38:03;19.27;;;12.07;;
14665;SDS011;7420;53.574;10.040;2023-01-19T03:40:32;22.00;;;13.05;;
14665;SDS011;7420;53.574;10.040;2023-01-19T03:43:00;21.02;;;10.57;;
14665;SDS011;7420;53.574;10.040;2023-01-19T03:45:27;18.30;;;12.07;;
14665;SDS011;7420;53.574;10.040;2023-01-19T03:47:55;22.77;;;13.27;;
14665;SDS011;7420;53.574;10.040;2023-01-19T03:50:25;23.13;;;12.15;;
14665;SDS011;7420;53.574;10.040;2023-01-19T03:53:26;19.52;;;10.68;;
14665;SDS011;7420;53.574;10.040;2023-01-19T03:55:46;20.75;;;12.00;;
14665;SDS011;7420;53.574;10.040;2023-01-19T03:58:14;18.42;;;11.60;;
14665;SDS011;7420;53.574;10.040;2023-01-19T04:00:39;21.25;;;12.77;;
14665;SDS011;7420;53.574;10.040;2023-01-19T04:03:05;16.92;;;12.05;;
14665;SDS011;7420;53.574;10.040;2023-01-19T04:05:37;23.23;;;13.57;;
14665;SDS011;7420;53.574;10.040;2023-01-19T04:08:03;19.92;;;12.68;;
14665;SDS011;7420;53.574;10.040;2023-01-19T04:10:29;17.27;;;12.32;;
14665;SDS011;7420;53.574;10.040;2023-01-19T04:12:58;24.83;;;15.23;;
14665;SDS011;7420;53.574;10.040;2023-01-19T04:15:24;19.13;;;12.18;;
14665;SDS011;7420;53.574;10.040;2023-01-19T04:17:50;25.90;;;14.50;;
14665;SDS011;7420;53.574;10.040;2023-01-19T04:20:16;18.10;;;12.38;;
14665;SDS011;7420;53.574;10.040;2023-01-19T04:22:41;21.13;;;13.77;;
14665;SDS011;7420;53.574;10.040;2023-01-19T04:25:07;25.02;;;14.05;;
14665;SDS011;7420;53.574;10.040;2023-01-19T04:27:34;23.63;;;14.48;;
14665;SDS011;7420;53.574;10.040;2023-01-19T04:30:00;20.60;;;13.68;;
14665;SDS011;7420;53.574;10.040;2023-01-19T04:32:28;23.52;;;12.15;;
14665;SDS011;7420;53.574;10.040;2023-01-19T04:34:54;23.88;;;12.95;;
14665;SDS011;7420;53.574;10.040;2023-01-19T04:37:19;17.42;;;13.05;;
14665;SDS011;7420;53.574;10.040;2023-01-19T04:39:44;20.98;;;12.80;;
14665;SDS011;7420;53.574;10.040;2023-01-19T04:42:10;24.08;;;15.20;;
14665;SDS011;7420;53.574;10.040;2023-01-19T04:44:35;24.35;;;14.45;;
14665;SDS011;7420;53.574;10.040;2023-01-19T04:47:00;22.73;;;14.20;;
14665;SDS011;7420;53.574;10.040;2023-01-19T04:49:27;22.50;;;15.70;;
14665;SDS011;7420;53.574;10.040;2023-01-19T04:51:52;23.10;;;14.02;;
14665;SDS011;7420;53.574;10.040;2023-01-19T04:54:18;22.40;;;15.25;;
14665;SDS011;7420;53.574;10.040;2023-01-19T04:56:44;20.23;;;13.85;;
14665;SDS011;7420;53.574;10.040;2023-01-19T04:59:09;25.13;;;14.85;;
14665;SDS011;7420;53.574;10.040;2023-01-19T05:01:34;19.30;;;13.68;;
14665;SDS011;7420;53.574;10.040;2023-01-19T05:04:00;23.17;;;12.98;;
14665;SDS011;7420;53.574;10.040;2023-01-19T05:06:27;21.33;;;14.43;;
14665;SDS011;7420;53.574;10.040;2023-01-19T05:08:53;26.35;;;15.63;;
14665;SDS011;7420;53.574;10.040;2023-01-19T05:11:18;21.52;;;13.77;;
14665;SDS011;7420;53.574;10.040;2023-01-19T05:13:43;24.95;;;12.15;;
14665;SDS011;7420;53.574;10.040;2023-01-19T05:16:09;22.80;;;13.82;;
14665;SDS011;7420;53.574;10.040;2023-01-19T05:18:34;21.65;;;14.73;;
14665;SDS011;7420;53.574;10.040;2023-01-19T05:21:04;19.25;;;12.77;;
14665;SDS011;7420;53.574;10.040;2023-01-19T05:23:30;20.23;;;14.20;;
14665;SDS011;7420;53.574;10.040;2023-01-19T05:25:57;23.63;;;16.13;;
14665;SDS011;7420;53.574;10.040;2023-01-19T05:28:25;24.33;;;15.15;;
14665;SDS011;7420;53.574;10.040;2023-01-19T05:30:51;25.80;;;14.70;;
14665;SDS011;7420;53.574;10.040;2023-01-19T05:33:16;28.92;;;15.82;;
14665;SDS011;7420;53.574;10.040;2023-01-19T05:35:41;28.55;;;15.13;;
14665;SDS011;7420;53.574;10.040;2023-01-19T05:38:07;20.83;;;13.93;;
14665;SDS011;7420;53.574;10.040;2023-01-19T05:40:33;21.58;;;14.80;;
14665;SDS011;7420;53.574;10.040;2023-01-19T05:42:58;25.50;;;16.98;;
14665;SDS011;7420;53.574;10.040;2023-01-19T05:45:25;26.52;;;17.17;;
14665;SDS011;7420;53.574;10.040;2023-01-19T05:47:52;27.00;;;17.33;;
14665;SDS011;7420;53.574;10.040;2023-01-19T05:50:18;25.48;;;16.13;;
14665;SDS011;7420;53.574;10.040;2023-01-19T05:52:44;25.55;;;15.88;;
14665;SDS011;7420;53.574;10.040;2023-01-19T05:55:09;24.73;;;15.18;;
14665;SDS011;7420;53.574;10.040;2023-01-19T05:57:35;27.75;;;15.52;;
14665;SDS011;7420;53.574;10.040;2023-01-19T06:00:00;26.02;;;15.88;;
14665;SDS011;7420;53.574;10.040;2023-01-19T06:02:27;22.67;;;15.27;;
14665;SDS011;7420;53.574;10.040;2023-01-19T06:04:54;27.02;;;17.50;;
14665;SDS011;7420;53.574;10.040;2023-01-19T06:07:19;27.85;;;17.50;;
14665;SDS011;7420;53.574;10.040;2023-01-19T06:09:45;25.73;;;15.77;;
14665;SDS011;7420;53.574;10.040;2023-01-19T06:12:10;30.08;;;18.27;;
14665;SDS011;7420;53.574;10.040;2023-01-19T06:14:35;29.45;;;18.33;;
14665;SDS011;7420;53.574;10.040;2023-01-19T06:17:02;26.45;;;16.75;;
14665;SDS011;7420;53.574;10.040;2023-01-19T06:19:29;23.48;;;14.45;;
14665;SDS011;7420;53.574;10.040;2023-01-19T06:21:55;26.48;;;16.13;;
14665;SDS011;7420;53.574;10.040;2023-01-19T06:24:21;26.30;;;17.17;;
14665;SDS011;7420;53.574;10.040;2023-01-19T06:26:47;23.77;;;14.63;;
14665;SDS011;7420;53.574;10.040;2023-01-19T06:29:12;17.60;;;11.82;;
14665;SDS011;7420;53.574;10.040;2023-01-19T06:31:38;26.20;;;14.48;;
14665;SDS011;7420;53.574;10.040;2023-01-19T06:34:04;23.30;;;14.65;;
14665;SDS011;7420;53.574;10.040;2023-01-19T06:36:29;25.17;;;16.25;;
14665;SDS011;7420;53.574;10.040;2023-01-19T06:38:54;22.02;;;15.00;;
14665;SDS011;7420;53.574;10.040;2023-01-19T06:41:20;20.17;;;13.65;;
14665;SDS011;7420;53.574;10.040;2023-01-19T06:43:45;18.73;;;11.93;;
14665;SDS011;7420;53.574;10.040;2023-01-19T06:46:11;24.08;;;14.77;;
14665;SDS011;7420;53.574;10.040;2023-01-19T06:48:37;24.23;;;16.70;;
14665;SDS011;7420;53.574;10.040;2023-01-19T06:51:02;21.90;;;14.23;;
14665;SDS011;7420;53.574;10.040;2023-01-19T06:53:29;20.20;;;14.13;;
14665;SDS011;7420;53.574;10.040;2023-01-19T06:55:59;22.58;;;12.93;;
14665;SDS011;7420;53.574;10.040;2023-01-19T06:58:25;22.45;;;13.07;;
14665;SDS011;7420;53.574;10.040;2023-01-19T07:00:52;21.52;;;12.82;;
14665;SDS011;7420;53.574;10.040;2023-01-19T07:03:20;17.63;;;10.90;;
14665;SDS011;7420;53.574;10.040;2023-01-19T07:05:50;21.85;;;15.13;;
14665;SDS011;7420;53.574;10.040;2023-01-19T07:08:16;16.92;;;12.25;;
14665;SDS011;7420;53.574;10.040;2023-01-19T07:10:42;23.88;;;14.95;;
14665;SDS011;7420;53.574;10.040;2023-01-19T07:13:07;23.33;;;15.68;;
14665;SDS011;7420;53.574;10.040;2023-01-19T07:15:33;22.80;;;15.07;;
14665;SDS011;7420;53.574;10.040;2023-01-19T07:17:58;25.13;;;15.10;;
14665;SDS011;7420;53.574;10.040;2023-01-19T07:20:24;21.45;;;13.57;;
14665;SDS011;7420;53.574;10.040;2023-01-19T07:22:54;19.25;;;13.38;;
14665;SDS011;7420;53.574;10.040;2023-01-19T07:25:20;23.45;;;15.38;;
14665;SDS011;7420;53.574;10.040;2023-01-19T07:27:46;20.55;;;13.43;;
14665;SDS011;7420;53.574;10.040;2023-01-19T07:30:12;21.80;;;14.63;;
14665;SDS011;7420;53.574;10.040;2023-01-19T07:32:39;20.30;;;14.23;;
14665;SDS011;7420;53.574;10.040;2023-01-19T07:35:07;21.52;;;13.13;;
14665;SDS011;7420;53.574;10.040;2023-01-19T07:37:33;26.13;;;15.70;;
14665;SDS011;7420;53.574;10.040;2023-01-19T07:39:59;24.15;;;14.45;;
14665;SDS011;7420;53.574;10.040;2023-01-19T07:42:24;29.42;;;17.20;;
14665;SDS011;7420;53.574;10.040;2023-01-19T07:44:50;33.70;;;17.13;;
14665;SDS011;7420;53.574;10.040;2023-01-19T07:47:15;23.98;;;16.23;;
14665;SDS011;7420;53.574;10.040;2023-01-19T07:49:40;28.88;;;17.95;;
14665;SDS011;7420;53.574;10.040;2023-01-19T07:52:06;28.25;;;16.00;;
14665;SDS011;7420;53.574;10.040;2023-01-19T07:54:32;29.27;;;16.35;;
14665;SDS011;7420;53.574;10.040;2023-01-19T07:56:57;30.05;;;19.45;;
14665;SDS011;7420;53.574;10.040;2023-01-19T07:59:25;29.23;;;17.13;;
14665;SDS011;7420;53.574;10.040;2023-01-19T08:01:54;28.30;;;17.85;;
14665;SDS011;7420;53.574;10.040;2023-01-19T08:04:22;24.23;;;15.10;;
14665;SDS011;7420;53.574;10.040;2023-01-19T08:06:47;30.85;;;16.38;;
14665;SDS011;7420;53.574;10.040;2023-01-19T08:09:13;31.40;;;17.23;;
14665;SDS011;7420;53.574;10.040;2023-01-19T08:11:38;31.95;;;18.27;;
14665;SDS011;7420;53.574;10.040;2023-01-19T08:14:04;26.00;;;16.77;;
14665;SDS011;7420;53.574;10.040;2023-01-19T08:16:29;26.65;;;16.30;;
14665;SDS011;7420;53.574;10.040;2023-01-19T08:18:54;28.90;;;16.70;;
14665;SDS011;7420;53.574;10.040;2023-01-19T08:21:20;23.60;;;13.43;;
14665;SDS011;7420;53.574;10.040;2023-01-19T08:23:55;28.40;;;15.23;;
14665;SDS011;7420;53.574;10.040;2023-01-19T08:26:31;25.70;;;15.00;;
14665;SDS011;7420;53.574;10.040;2023-01-19T08:28:59;28.48;;;16.65;;
14665;SDS011;7420;53.574;10.040;2023-01-19T08:31:27;28.95;;;15.90;;
14665;SDS011;7420;53.574;10.040;2023-01-19T08:33:52;23.88;;;15.82;;
14665;SDS011;7420;53.574;10.040;2023-01-19T08:36:18;27.95;;;14.52;;
14665;SDS011;7420;53.574;10.040;2023-01-19T08:38:45;23.48;;;14.45;;
14665;SDS011;7420;53.574;10.040;2023-01-19T08:41:11;24.52;;;14.00;;
14665;SDS011;7420;53.574;10.040;2023-01-19T08:43:37;20.40;;;13.40;;
14665;SDS011;7420;53.574;10.040;2023-01-19T08:46:03;28.60;;;17.08;;
14665;SDS011;7420;53.574;10.040;2023-01-19T08:48:29;23.27;;;14.20;;
14665;SDS011;7420;53.574;10.040;2023-01-19T08:50:54;25.02;;;16.23;;
14665;SDS011;7420;53.574;10.040;2023-01-19T08:53:20;23.77;;;15.40;;
14665;SDS011;7420;53.574;10.040;2023-01-19T08:55:47;19.20;;;12.65;;
14665;SDS011;7420;53.574;10.040;2023-01-19T08:58:13;22.70;;;13.27;;
14665;SDS011;7420;53.574;10.040;2023-01-19T09:00:39;25.70;;;14.75;;
14665;SDS011;7420;53.574;10.040;2023-01-19T09:03:05;21.02;;;14.00;;
14665;SDS011;7420;53.574;10.040;2023-01-19T09:05:32;20.85;;;12.00;;
14665;SDS011;7420;53.574;10.040;2023-01-19T09:07:59;22.40;;;12.73;;
14665;SDS011;7420;53.574;10.040;2023-01-19T09:10:26;24.40;;;13.02;;
14665;SDS011;7420;53.574;10.040;2023-01-19T09:12:55;26.67;;;15.30;;
14665;SDS011;7420;53.574;10.040;2023-01-19T09:15:21;24.38;;;14.80;;
14665;SDS011;7420;53.574;10.040;2023-01-19T09:17:46;24.58;;;14.80;;
14665;SDS011;7420;53.574;10.040;2023-01-19T09:20:12;26.98;;;16.50;;
14665;SDS011;7420;53.574;10.040;2023-01-19T09:22:38;23.15;;;14.98;;
14665;SDS011;7420;53.574;10.040;2023-01-19T09:25:04;22.13;;;13.90;;
14665;SDS011;7420;53.574;10.040;2023-01-19T09:27:31;28.02;;;16.00;;
14665;SDS011;7420;53.574;10.040;2023-01-19T09:29:56;34.97;;;17.88;;
14665;SDS011;7420;53.574;10.040;2023-01-19T09:32:21;29.73;;;16.05;;
14665;SDS011;7420;53.574;10.040;2023-01-19T09:34:47;23.63;;;15.20;;
14665;SDS011;7420;53.574;10.040;2023-01-19T09:37:13;26.45;;;15.10;;
14665;SDS011;7420;53.574;10.040;2023-01-19T09:39:40;33.13;;;20.52;;
14665;SDS011;7420;53.574;10.040;2023-01-19T09:47:39;28.95;;;17.08;;
14665;SDS011;7420;53.574;10.040;2023-01-19T09:50:08;29.63;;;17.27;;
14665;SDS011;7420;53.574;10.040;2023-01-19T09:52:40;32.50;;;18.23;;
14665;SDS011;7420;53.574;10.040;2023-01-19T09:55:18;29.30;;;18.50;;
14665;SDS011;7420;53.574;10.040;2023-01-19T09:57:45;27.27;;;14.95;;
14665;SDS011;7420;53.574;10.040;2023-01-19T10:00:16;29.63;;;17.10;;
14665;SDS011;7420;53.574;10.040;2023-01-19T10:02:47;27.02;;;16.98;;
14665;SDS011;7420;53.574;10.040;2023-01-19T10:10:26;25.95;;;13.55;;
14665;SDS011;7420;53.574;10.040;2023-01-19T10:20:59;26.48;;;16.45;;
14665;SDS011;7420;53.574;10.040;2023-01-19T10:23:34;27.02;;;15.98;;
14665;SDS011;7420;53.574;10.040;2023-01-19T10:26:05;27.80;;;15.25;;
14665;SDS011;7420;53.574;10.040;2023-01-19T10:28:34;28.48;;;17.05;;
14665;SDS011;7420;53.574;10.040;2023-01-19T10:31:01;22.95;;;14.23;;
14665;SDS011;7420;53.574;10.040;2023-01-19T10:33:28;24.45;;;14.68;;
14665;SDS011;7420;53.574;10.040;2023-01-19T10:35:54;28.58;;;17.65;;
14665;SDS011;7420;53.574;10.040;2023-01-19T10:38:20;20.42;;;12.43;;
14665;SDS011;7420;53.574;10.040;2023-01-19T10:41:05;22.10;;;13.75;;
14665;SDS011;7420;53.574;10.040;2023-01-19T10:43:39;27.17;;;14.10;;
14665;SDS011;7420;53.574;10.040;2023-01-19T10:46:07;27.77;;;15.18;;
14665;SDS011;7420;53.574;10.040;2023-01-19T10:48:41;26.52;;;15.77;;
14665;SDS011;7420;53.574;10.040;2023-01-19T10:51:08;25.88;;;17.40;;
14665;SDS011;7420;53.574;10.040;2023-01-19T10:53:34;28.65;;;18.25;;
14665;SDS011;7420;53.574;10.040;2023-01-19T10:56:10;25.67;;;15.68;;
14665;SDS011;7420;53.574;10.040;2023-01-19T10:58:36;24.25;;;15.07;;
14665;SDS011;7420;53.574;10.040;2023-01-19T11:01:15;22.73;;;13.65;;
14665;SDS011;7420;53.574;10.040;2023-01-19T11:03:42;21.75;;;14.13;;
14665;SDS011;7420;53.574;10.040;2023-01-19T11:08:40;23.83;;;13.98;;
14665;SDS011;7420;53.574;10.040;2023-01-19T11:11:07;22.00;;;14.48;;
14665;SDS011;7420;53.574;10.040;2023-01-19T11:13:40;21.33;;;11.40;;
14665;SDS011;7420;53.574;10.040;2023-01-19T11:16:07;20.37;;;12.77;;
14665;SDS011;7420;53.574;10.040;2023-01-19T11:18:42;19.42;;;12.75;;
14665;SDS011;7420;53.574;10.040;2023-01-19T11:21:10;21.52;;;13.10;;
14665;SDS011;7420;53.574;10.040;2023-01-19T11:26:14;24.88;;;14.90;;
14665;SDS011;7420;53.574;10.040;2023-01-19T11:28:49;24.95;;;15.35;;
14665;SDS011;7420;53.574;10.040;2023-01-19T11:31:26;24.08;;;16.08;;
14665;SDS011;7420;53.574;10.040;2023-01-19T11:33:56;23.52;;;14.48;;
14665;SDS011;7420;53.574;10.040;2023-01-19T11:36:26;24.50;;;15.48;;
14665;SDS011;7420;53.574;10.040;2023-01-19T11:38:53;21.83;;;14.50;;
14665;SDS011;7420;53.574;10.040;2023-01-19T11:41:33;24.90;;;15.27;;
14665;SDS011;7420;53.574;10.040;2023-01-19T11:46:47;21.20;;;12.80;;
14665;SDS011;7420;53.574;10.040;2023-01-19T11:52:27;24.63;;;14.48;;
14665;SDS011;7420;53.574;10.040;2023-01-19T11:55:09;19.60;;;13.73;;
14665;SDS011;7420;53.574;10.040;2023-01-19T11:57:44;25.23;;;15.02;;
14665;SDS011;7420;53.574;10.040;2023-01-19T12:02:48;22.90;;;14.23;;
14665;SDS011;7420;53.574;10.040;2023-01-19T12:05:17;24.60;;;15.68;;
14665;SDS011;7420;53.574;10.040;2023-01-19T12:07:44;23.13;;;14.55;;
14665;SDS011;7420;53.574;10.040;2023-01-19T12:10:16;24.75;;;15.73;;
14665;SDS011;7420;53.574;10.040;2023-01-19T12:12:52;22.05;;;13.95;;
14665;SDS011;7420;53.574;10.040;2023-01-19T12:15:37;28.10;;;14.18;;
14665;SDS011;7420;53.574;10.040;2023-01-19T12:18:06;24.33;;;14.02;;
14665;SDS011;7420;53.574;10.040;2023-01-19T12:20:37;25.58;;;14.80;;
14665;SDS011;7420;53.574;10.040;2023-01-19T12:23:27;30.42;;;16.25;;
14665;SDS011;7420;53.574;10.040;2023-01-19T12:28:41;27.23;;;15.18;;
14665;SDS011;7420;53.574;10.040;2023-01-19T12:31:09;24.63;;;14.32;;
14665;SDS011;7420;53.574;10.040;2023-01-19T12:33:43;24.27;;;13.30;;
14665;SDS011;7420;53.574;10.040;2023-01-19T12:38:56;26.98;;;15.52;;
14665;SDS011;7420;53.574;10.040;2023-01-19T12:41:27;22.67;;;13.20;;
14665;SDS011;7420;53.574;10.040;2023-01-19T12:55:00;22.75;;;14.88;;
14665;SDS011;7420;53.574;10.040;2023-01-19T12:59:59;20.98;;;13.18;;
14665;SDS011;7420;53.574;10.040;2023-01-19T13:13:37;22.50;;;12.20;;
14665;SDS011;7420;53.574;10.040;2023-01-19T13:16:44;25.63;;;12.43;;
14665;SDS011;7420;53.574;10.040;2023-01-19T13:19:17;20.63;;;12.35;;
14665;SDS011;7420;53.574;10.040;2023-01-19T13:21:52;22.27;;;13.27;;
14665;SDS011;7420;53.574;10.040;2023-01-19T13:24:19;24.05;;;13.70;;
14665;SDS011;7420;53.574;10.040;2023-01-19T13:29:15;20.85;;;12.82;;
14665;SDS011;7420;53.574;10.040;2023-01-19T13:31:48;23.77;;;13.07;;
14665;SDS011;7420;53.574;10.040;2023-01-19T13:34:18;22.17;;;11.40;;
14665;SDS011;7420;53.574;10.040;2023-01-19T13:36:48;22.73;;;14.73;;
14665;SDS011;7420;53.574;10.040;2023-01-19T13:39:18;21.80;;;11.57;;
14665;SDS011;7420;53.574;10.040;2023-01-19T13:41:51;21.85;;;12.25;;
14665;SDS011;7420;53.574;10.040;2023-01-19T13:44:28;19.23;;;11.48;;
14665;SDS011;7420;53.574;10.040;2023-01-19T13:46:57;23.65;;;14.15;;
14665;SDS011;7420;53.574;10.040;2023-01-19T13:49:25;19.20;;;11.07;;
14665;SDS011;7420;53.574;10.040;2023-01-19T13:52:14;19.85;;;11.60;;
14665;SDS011;7420;53.574;10.040;2023-01-19T13:54:54;20.10;;;11.23;;
14665;SDS011;7420;53.574;10.040;2023-01-19T14:02:33;17.42;;;10.02;;
14665;SDS011;7420;53.574;10.040;2023-01-19T14:05:11;16.80;;;11.10;;
14665;SDS011;7420;53.574;10.040;2023-01-19T14:07:44;17.20;;;10.27;;
14665;SDS011;7420;53.574;10.040;2023-01-19T14:10:13;18.90;;;11.77;;
14665;SDS011;7420;53.574;10.040;2023-01-19T14:12:41;17.38;;;10.95;;
14665;SDS011;7420;53.574;10.040;2023-01-19T14:15:10;42.28;;;12.52;;
14665;SDS011;7420;53.574;10.040;2023-01-19T14:17:38;18.83;;;10.80;;
14665;SDS011;7420;53.574;10.040;2023-01-19T14:20:05;18.45;;;11.30;;
14665;SDS011;7420;53.574;10.040;2023-01-19T14:22:51;13.32;;;9.65;;
14665;SDS011;7420;53.574;10.040;2023-01-19T14:25:26;16.60;;;10.27;;
14665;SDS011;7420;53.574;10.040;2023-01-19T14:30:53;19.95;;;10.18;;
14665;SDS011;7420;53.574;10.040;2023-01-19T14:33:41;17.10;;;9.95;;
14665;SDS011;7420;53.574;10.040;2023-01-19T14:38:44;15.60;;;9.35;;
14665;SDS011;7420;53.574;10.040;2023-01-19T14:41:11;14.90;;;9.27;;
14665;SDS011;7420;53.574;10.040;2023-01-19T14:43:45;14.27;;;9.20;;
14665;SDS011;7420;53.574;10.040;2023-01-19T14:46:17;13.55;;;8.43;;
14665;SDS011;7420;53.574;10.040;2023-01-19T14:48:45;11.48;;;7.10;;
14665;SDS011;7420;53.574;10.040;2023-01-19T14:51:14;12.15;;;7.65;;
14665;SDS011;7420;53.574;10.040;2023-01-19T14:53:44;16.02;;;8.68;;
14665;SDS011;7420;53.574;10.040;2023-01-19T14:56:12;15.55;;;7.82;;
14665;SDS011;7420;53.574;10.040;2023-01-19T14:58:49;16.67;;;8.32;;
14665;SDS011;7420;53.574;10.040;2023-01-19T15:01:14;13.23;;;7.50;;
14665;SDS011;7420;53.574;10.040;2023-01-19T15:03:40;13.43;;;8.00;;
14665;SDS011;7420;53.574;10.040;2023-01-19T15:06:05;13.15;;;7.78;;
14665;SDS011;7420;53.574;10.040;2023-01-19T15:08:31;17.33;;;9.48;;
14665;SDS011;7420;53.574;10.040;2023-01-19T15:11:00;16.25;;;9.43;;
14665;SDS011;7420;53.574;10.040;2023-01-19T15:13:33;14.23;;;8.40;;
14665;SDS011;7420;53.574;10.040;2023-01-19T15:15:58;16.00;;;8.07;;
14665;SDS011;7420;53.574;10.040;2023-01-19T15:18:24;15.90;;;8.18;;
14665;SDS011;7420;53.574;10.040;2023-01-19T15:20:54;13.00;;;7.45;;
14665;SDS011;7420;53.574;10.040;2023-01-19T15:23:20;17.08;;;7.10;;
14665;SDS011;7420;53.574;10.040;2023-01-19T15:25:46;17.42;;;8.13;;
14665;SDS011;7420;53.574;10.040;2023-01-19T15:28:31;16.77;;;8.38;;
14665;SDS011;7420;53.574;10.040;2023-01-19T15:30:58;14.85;;;7.68;;
14665;SDS011;7420;53.574;10.040;2023-01-19T15:33:24;18.33;;;8.90;;
14665;SDS011;7420;53.574;10.040;2023-01-19T15:35:52;13.55;;;7.13;;
14665;SDS011;7420;53.574;10.040;2023-01-19T15:38:17;14.27;;;7.65;;
14665;SDS011;7420;53.574;10.040;2023-01-19T15:40:44;12.88;;;7.55;;
14665;SDS011;7420;53.574;10.040;2023-01-19T15:43:11;14.45;;;7.35;;
14665;SDS011;7420;53.574;10.040;2023-01-19T15:48:05;14.52;;;7.93;;
14665;SDS011;7420;53.574;10.040;2023-01-19T15:50:32;13.85;;;8.07;;
14665;SDS011;7420;53.574;10.040;2023-01-19T15:53:00;14.82;;;9.00;;
14665;SDS011;7420;53.574;10.040;2023-01-19T15:55:25;13.50;;;7.80;;
14665;SDS011;7420;53.574;10.040;2023-01-19T15:57:51;16.42;;;8.68;;
14665;SDS011;7420;53.574;10.040;2023-01-19T16:00:17;20.90;;;7.82;;
14665;SDS011;7420;53.574;10.040;2023-01-19T16:02:42;18.55;;;7.93;;
14665;SDS011;7420;53.574;10.040;2023-01-19T16:05:08;21.45;;;8.40;;
14665;SDS011;7420;53.574;10.040;2023-01-19T16:07:33;18.27;;;7.57;;
14665;SDS011;7420;53.574;10.040;2023-01-19T16:09:59;16.63;;;7.18;;
14665;SDS011;7420;53.574;10.040;2023-01-19T16:12:25;13.27;;;5.95;;